Thursday, September 20, 2018, 9:02 AM EDT
Back to Local

KTEB, Teterboro Airport

Location: South Hackensack, NJ, United States Lat: 40.867
Local Time: 9:02 AM EDT (13:02 GMT) Lon: -74.05
Time Zone: US/Eastern Elev: 9 ft

Show me the last for .
Show Decoded

2018-09-20 07:51 METAR KTEB 201151Z 08004KT 10SM OVC023 19/14 A3018 RMK AO2 SLP221 T01890144
                 10206 20189 53027 =
2018-09-20 06:51 METAR KTEB 201051Z 07004KT 10SM OVC022 19/14 A3015 RMK AO2 SLP208 T01890144 =
2018-09-20 05:51 METAR KTEB 200951Z 11005KT 10SM OVC020 19/15 A3012 RMK AO2 SLP199 T01890150 =
2018-09-20 04:51 METAR KTEB 200851Z VRB06KT 10SM OVC019 19/15 A3010 RMK AO2 SLP193 T01890150
                 53009 =
2018-09-20 03:51 METAR KTEB 200751Z 07005KT 10SM OVC024 19/15 A3009 RMK AO2 SLP189 T01940150 =
2018-09-20 02:51 METAR KTEB 200651Z 08004KT 10SM BKN020 OVC025 20/16 A3008 RMK AO2 SLP186
                 T02000161 =
2018-09-20 01:51 METAR KTEB 200551Z 09008KT 10SM SCT026 SCT046 OVC060 21/17 A3007 RMK AO2 SLP184
                 60000 T02060167 10244 20206 53012 =
2018-09-20 00:51 METAR KTEB 200451Z 09003KT 10SM BKN023 OVC046 21/18 A3006 RMK AO2 RAB13E25
                 SLP178 P0000 T02110178 402890189 =
2018-09-19 23:51 METAR KTEB 200351Z 36003KT 10SM OVC015 22/19 A3005 RMK AO2 SLP176 T02220194 =
2018-09-19 22:51 METAR KTEB 200251Z 23006KT 10SM OVC015 22/19 A3004 RMK AO2 SLP172 T02220194
                 51026 =
2018-09-19 21:51 METAR KTEB 200151Z 24005KT 10SM OVC016 23/20 A3002 RMK AO2 SLP166 T02280200 =
2018-09-19 21:22 METAR KTEB 200122Z 25004KT 10SM BKN018 BKN027 OVC041 23/21 A3001 RMK AO2
                 T02280206 =
2018-09-19 20:51 METAR KTEB 200051Z 09003KT 10SM BKN036 23/19 A2999 RMK AO2 SLP156 T02330194 =
2018-09-19 19:51 METAR KTEB 192351Z 10004KT 10SM OVC050 24/19 A2996 RMK AO2 SLP146 T02440194
                 10289 20244 52019 =
2018-09-19 18:51 METAR KTEB 192251Z 07005KT 10SM BKN050 OVC060 26/18 A2994 RMK AO2 SLP138
                 T02610178 =
2018-09-19 17:51 METAR KTEB 192151Z 04005KT 10SM CLR 27/17 A2993 RMK AO2 SLP134 T02720172 =
2018-09-19 16:51 METAR KTEB 192051Z 02006KT 10SM CLR 28/17 A2991 RMK AO2 SLP127 T02780167 53003 =
2018-09-19 15:51 METAR KTEB 191951Z 01007KT 10SM CLR 28/17 A2989 RMK AO2 SLP121 T02780167 =
2018-09-19 14:51 METAR KTEB 191851Z 04007G14KT 10SM SCT047 BKN055 28/16 A2990 RMK AO2 SLP124
                 T02830161 =
2018-09-19 13:51 METAR KTEB 191751Z 35009KT 10SM FEW043 BKN050 27/17 A2990 RMK AO2 SLP124
                 T02720172 10278 20217 50002 =
2018-09-19 12:51 METAR KTEB 191651Z 04010KT 10SM SCT044 BKN050 28/18 A2990 RMK AO2 SLP126
                 T02780178 =
2018-09-19 11:51 METAR KTEB 191551Z 01012G18KT 10SM BKN048 27/17 A2990 RMK AO2 SLP124 T02670172 =
2018-09-19 10:51 METAR KTEB 191451Z 02009G15KT 10SM CLR 27/19 A2989 RMK AO2 SLP122 T02670189
                 51015 =
2018-09-19 09:51 METAR KTEB 191351Z 02008KT 10SM CLR 25/20 A2989 RMK AO2 SLP120 T02500200 $ =

Support USWX by starting your Amazon purchase here.